首页
METAR-TAF:

METAR-TAF

机场 :

Mackenzie, 不列颠哥伦比亚, 加拿大

纬度: 55-18N, 经度: 123-08W, 海拔: 695米

当前天气观测

该预报发布于47分钟前的10:00 UTC
静风
温度 11°C
湿度 94%
气压 1024 hPa
能見度: 14.5公里
多云层高于12000英尺

METAR: CYZY 221000Z AUTO 00000KT 9SM BKN120 11/10 A3024 RMK SLP248

时间: 03:47 (10:47 UTC)

预报

该预报发布于4小时和7分钟前的06:40 UTC
预报有效从22日的 07点(UTC)到 22日的 09点(UTC)
风速3节,风向多变
能見度: 10公里
散云层高于4000英尺
多云层高于8000英尺
短暂存在
从 22日的 07点(UTC)到 22日的 09点(UTC)
能見度: 9.7公里
阴天层高于4000英尺
小阵雨, 轻雾

TAF: CYZY 220640Z 2207/2209 VRB03KT P6SM SCT040 BKN080 TEMPO 2207/2209 6SM -SHRA BR OVC040 RMK FCST BASED ON AUTO OBS. NXT FCST WILL BE ISSUED AT 221445Z

超过4000个机场的气象观测和天气预报(METAR&TAF报告)。

可查询的气象台以黄色和红色小点在地图上表示。

将鼠标移到小点上方,可查看气象台名称。

然后点击查看天气观测和预报。

如需切换地图:点击带黑十字的绿色按钮放大地图;点击带横线的绿色按钮缩小地图;或者点击绿色箭头查看邻近地区的地图。


METAR-TAF: